Time;durP1;ratioP1;P1;durP2;ratioP2;P2;SDS_P1;SDS_P2;PMS_P1;PMS_P2;Temp;Humidity;BMP_temperature;BMP_pressure;BME280_temperature;BME280_humidity;BME280_pressure;Samples;Min_cycle;Max_cycle;Signal;HPM_P1;HPM_P2
2021/12/12 00:08:54;;;;;;;105.8;133.1;;;;;;;1.7;77.8;99240;;;;
2021/12/12 00:19:54;;;;;;;87.9;116.5;;;;;;;1.6;78.5;99270;;;;
2021/12/12 00:30:01;;;;;;;87.9;116.5;;;;;;;1.7;78.2;99290;;;;
2021/12/12 00:39:54;;;;;;;87.9;116.5;;;;;;;1.6;78.2;99290;;;;
2021/12/12 00:50:54;;;;;;;95.1;118.9;;;;;;;1.7;78.2;99300;;;;
2021/12/12 01:00:54;;;;;;;95.1;118.9;;;;;;;1.7;77.9;99300;;;;
2021/12/12 01:10:54;;;;;;;95.1;118.9;;;;;;;1.7;77.7;99310;;;;
2021/12/12 01:20:54;;;;;;;89.3;109.4;;;;;;;1.6;77.5;99300;;;;
2021/12/12 01:30:54;;;;;;;89.3;109.4;;;;;;;1.5;77.9;99300;;;;
2021/12/12 01:41:54;;;;;;;88.4;108.6;;;;;;;1.4;78.4;99310;;;;
2021/12/12 01:52:54;;;;;;;88.4;108.6;;;;;;;1.4;78.1;99310;;;;
2021/12/12 02:02:54;;;;;;;88.4;108.6;;;;;;;1.3;78;99310;;;;
2021/12/12 02:12:54;;;;;;;85.5;106.3;;;;;;;1.3;77.7;99310;;;;
2021/12/12 02:23:03;;;;;;;85.5;106.3;;;;;;;1.2;77.4;99320;;;;
2021/12/12 02:42:54;;;;;;;76.6;104.3;;;;;;;1.2;77;99330;;;;
2021/12/12 02:52:54;;;;;;;76.6;104.3;;;;;;;1.2;76.8;99330;;;;
2021/12/12 03:03:54;;;;;;;76.6;104.3;;;;;;;1.2;76.7;99340;;;;
2021/12/12 03:14:54;;;;;;;73.4;95.5;;;;;;;1;76.9;99360;;;;
2021/12/12 03:25:54;;;;;;;73.4;95.5;;;;;;;1.1;76.9;99370;;;;
2021/12/12 03:36:54;;;;;;;73.4;95.5;;;;;;;1.2;76.9;99370;;;;
2021/12/12 03:46:54;;;;;;;69.6;89.9;;;;;;;0.9;77.4;99370;;;;
2021/12/12 03:56:54;;;;;;;69.6;89.9;;;;;;;0.9;77.4;99380;;;;
2021/12/12 04:07:54;;;;;;;69.6;89.9;;;;;;;1;77.3;99380;;;;
2021/12/12 04:18:54;;;;;;;65;81.9;;;;;;;1;77.1;99390;;;;
2021/12/12 04:28:54;;;;;;;65;81.9;;;;;;;1;77.4;99380;;;;
2021/12/12 04:39:57;;;;;;;65;81.9;;;;;;;1.1;77.3;99390;;;;
2021/12/12 04:49:55;;;;;;;63.2;85;;;;;;;1.1;77.1;99400;;;;
2021/12/12 05:00:54;;;;;;;63.2;85;;;;;;;1.1;76.7;99420;;;;
2021/12/12 05:11:54;;;;;;;55.2;75.4;;;;;;;1.1;76.4;99440;;;;
2021/12/12 05:21:54;;;;;;;55.2;75.4;;;;;;;1.2;76;99440;;;;
2021/12/12 05:32:54;;;;;;;55.2;75.4;;;;;;;0.9;76.8;99460;;;;
2021/12/12 05:42:54;;;;;;;56.3;71.6;;;;;;;0.8;77.2;99480;;;;
2021/12/12 05:52:54;;;;;;;56.3;71.6;;;;;;;0.9;77.1;99480;;;;
2021/12/12 06:02:54;;;;;;;56.3;71.6;;;;;;;1;77;99480;;;;
2021/12/12 06:12:54;;;;;;;57.6;77.1;;;;;;;0.9;77.6;99490;;;;
2021/12/12 06:22:54;;;;;;;57.6;77.1;;;;;;;0.9;77.5;99490;;;;
2021/12/12 06:32:54;;;;;;;57.6;77.1;;;;;;;1;77.4;99510;;;;
2021/12/12 06:43:56;;;;;;;54.3;72.1;;;;;;;1;77.5;99500;;;;
2021/12/12 06:53:54;;;;;;;54.3;72.1;;;;;;;1;77;99490;;;;
2021/12/12 07:04:54;;;;;;;54.3;72.1;;;;;;;1.1;76.9;99500;;;;
2021/12/12 07:14:54;;;;;;;54.6;77.4;;;;;;;1.1;76.5;99480;;;;
2021/12/12 07:25:54;;;;;;;54.6;77.4;;;;;;;1.1;76.5;99490;;;;
2021/12/12 07:35:55;;;;;;;54.6;77.4;;;;;;;1.3;76;99500;;;;
2021/12/12 07:45:54;;;;;;;52.3;61.8;;;;;;;1.4;75.4;99490;;;;
2021/12/12 07:56:54;;;;;;;52.3;61.8;;;;;;;1.5;75.3;99500;;;;
2021/12/12 08:07:54;;;;;;;52.3;61.8;;;;;;;1.5;74.8;99500;;;;
2021/12/12 08:17:54;;;;;;;57;68.3;;;;;;;1.7;74.5;99510;;;;
2021/12/12 08:27:54;;;;;;;57;68.3;;;;;;;1.6;74.4;99500;;;;
2021/12/12 08:38:54;;;;;;;57;68.3;;;;;;;2;73.6;99510;;;;
2021/12/12 08:49:54;;;;;;;54.5;62.7;;;;;;;2.1;73.8;99520;;;;
2021/12/12 08:59:54;;;;;;;54.5;62.7;;;;;;;2.4;72.7;99510;;;;
2021/12/12 09:09:54;;;;;;;54.5;62.7;;;;;;;2.1;72.8;99510;;;;
2021/12/12 09:20:56;;;;;;;58.7;74.9;;;;;;;1.8;73.5;99510;;;;
2021/12/12 09:31:54;;;;;;;58.7;74.9;;;;;;;1.9;74.1;99490;;;;
2021/12/12 09:41:54;;;;;;;62.3;74.1;;;;;;;1.8;74.6;99500;;;;
2021/12/12 09:52:55;;;;;;;62.3;74.1;;;;;;;2;73.5;99490;;;;
2021/12/12 10:03:54;;;;;;;62.3;74.1;;;;;;;2.2;73.3;99480;;;;
2021/12/12 10:13:54;;;;;;;59.8;76.6;;;;;;;2.5;72.4;99470;;;;
2021/12/12 10:23:54;;;;;;;59.8;76.6;;;;;;;2.7;71.1;99480;;;;
2021/12/12 10:34:54;;;;;;;59.8;76.6;;;;;;;2.9;70.8;99480;;;;
2021/12/12 10:44:54;;;;;;;64.6;75.2;;;;;;;3.2;70;99480;;;;
2021/12/12 10:54:54;;;;;;;64.6;75.2;;;;;;;3.4;69;99480;;;;
2021/12/12 11:04:54;;;;;;;64.6;75.2;;;;;;;3.6;68.9;99470;;;;
2021/12/12 11:15:55;;;;;;;65.9;76.6;;;;;;;4.1;68.7;99460;;;;
2021/12/12 11:25:54;;;;;;;65.9;76.6;;;;;;;4.1;67.4;99450;;;;
2021/12/12 11:35:54;;;;;;;65.9;76.6;;;;;;;4.3;66.4;99450;;;;
2021/12/12 11:45:56;;;;;;;54.7;64.9;;;;;;;4.6;66.1;99450;;;;
2021/12/12 11:56:54;;;;;;;54.7;64.9;;;;;;;4.7;65.7;99450;;;;
2021/12/12 12:06:54;;;;;;;54.7;64.9;;;;;;;4.7;65.7;99450;;;;
2021/12/12 12:16:54;;;;;;;53;60.5;;;;;;;4.6;65.6;99450;;;;
2021/12/12 12:26:56;;;;;;;53;60.5;;;;;;;3.8;67.3;99450;;;;
2021/12/12 12:36:54;;;;;;;53;60.5;;;;;;;3.4;68;99460;;;;
2021/12/12 12:46:54;;;;;;;54.4;63.2;;;;;;;3.2;68.7;99450;;;;
2021/12/12 12:56:54;;;;;;;54.4;63.2;;;;;;;3;68.9;99450;;;;
2021/12/12 13:07:54;;;;;;;54.4;63.2;;;;;;;2.9;69.4;99470;;;;
2021/12/12 13:17:56;;;;;;;46.8;53.4;;;;;;;2.7;69.5;99490;;;;
2021/12/12 13:28:56;;;;;;;46.8;53.4;;;;;;;2.5;70;99500;;;;
2021/12/12 13:38:54;;;;;;;46.8;53.4;;;;;;;2.2;70.7;99510;;;;
2021/12/12 13:49:54;;;;;;;43.5;53.5;;;;;;;2.2;70.8;99510;;;;
2021/12/12 14:00:54;;;;;;;43.5;53.5;;;;;;;2;71;99510;;;;
2021/12/12 14:11:55;;;;;;;44.9;55.6;;;;;;;1.7;72.2;99530;;;;
2021/12/12 14:21:54;;;;;;;44.9;55.6;;;;;;;1.1;73.5;99530;;;;
2021/12/12 14:32:54;;;;;;;44.9;55.6;;;;;;;0.6;74.6;99540;;;;
2021/12/12 14:43:54;;;;;;;65.2;92.3;;;;;;;0.1;75.7;99560;;;;
2021/12/12 14:53:54;;;;;;;65.2;92.3;;;;;;;-0.3;76.8;99570;;;;
2021/12/12 15:04:54;;;;;;;65.2;92.3;;;;;;;-0.5;76.1;99580;;;;
2021/12/12 15:14:54;;;;;;;55.1;90.5;;;;;;;-0.7;77.3;99590;;;;
2021/12/12 15:25:54;;;;;;;55.1;90.5;;;;;;;-0.8;77.3;99590;;;;
2021/12/12 15:35:54;;;;;;;55.1;90.5;;;;;;;-0.9;77.3;99600;;;;
2021/12/12 15:46:54;;;;;;;37.3;66.4;;;;;;;-1.1;78.1;99610;;;;
2021/12/12 15:57:54;;;;;;;37.3;66.4;;;;;;;-1.3;78.1;99620;;;;
2021/12/12 16:07:54;;;;;;;37.3;66.4;;;;;;;-1.5;78.3;99620;;;;
2021/12/12 16:17:54;;;;;;;28;50.7;;;;;;;-1.7;79.1;99620;;;;
2021/12/12 16:27:55;;;;;;;28;50.7;;;;;;;-1.8;78.9;99620;;;;
2021/12/12 16:37:54;;;;;;;28;50.7;;;;;;;-2;79;99620;;;;
2021/12/12 16:48:56;;;;;;;27.1;46.7;;;;;;;-2.2;79;99620;;;;
2021/12/12 16:59:56;;;;;;;27.1;46.7;;;;;;;-2.4;79.1;99620;;;;
2021/12/12 17:09:54;;;;;;;26;49.8;;;;;;;-2.5;79.1;99630;;;;
2021/12/12 17:19:55;;;;;;;26;49.8;;;;;;;-2.7;79;99630;;;;
2021/12/12 17:29:57;;;;;;;26;49.8;;;;;;;-2.8;79.4;99620;;;;
2021/12/12 17:39:57;;;;;;;29.5;58.3;;;;;;;-2.9;79.9;99620;;;;
2021/12/12 17:50:54;;;;;;;29.5;58.3;;;;;;;-3;79.8;99610;;;;
2021/12/12 18:00:55;;;;;;;29.5;58.3;;;;;;;-3.1;80.2;99600;;;;
2021/12/12 18:11:54;;;;;;;34.5;62.6;;;;;;;-2.9;81.4;99610;;;;
2021/12/12 18:21:55;;;;;;;34.5;62.6;;;;;;;-2.7;81.6;99620;;;;
2021/12/12 18:32:54;;;;;;;34.5;62.6;;;;;;;-2.5;81.6;99630;;;;
2021/12/12 18:42:54;;;;;;;39.8;73.2;;;;;;;-2.4;81.6;99640;;;;
2021/12/12 18:52:54;;;;;;;39.8;73.2;;;;;;;-2.3;81.2;99650;;;;
2021/12/12 19:03:54;;;;;;;39.8;73.2;;;;;;;-2.3;81.1;99640;;;;
2021/12/12 19:13:54;;;;;;;39.9;74.5;;;;;;;-2.4;80.7;99630;;;;
2021/12/12 19:23:55;;;;;;;39.9;74.5;;;;;;;-2.4;81.1;99620;;;;
2021/12/12 19:34:54;;;;;;;39.9;74.5;;;;;;;-2.4;81;99620;;;;
2021/12/12 19:45:54;;;;;;;39.2;68.8;;;;;;;-2;81.3;99620;;;;
2021/12/12 19:55:55;;;;;;;39.2;68.8;;;;;;;-1.8;81;99610;;;;
2021/12/12 20:06:54;;;;;;;39.2;68.8;;;;;;;-1.7;80.2;99610;;;;
2021/12/12 20:16:55;;;;;;;41;69.5;;;;;;;-1.9;79.3;99610;;;;
2021/12/12 20:26:54;;;;;;;41;69.5;;;;;;;-2.2;78.9;99590;;;;
2021/12/12 20:36:54;;;;;;;41;69.5;;;;;;;-2.4;78.8;99590;;;;
2021/12/12 20:46:54;;;;;;;37.4;64.6;;;;;;;-2.7;78.9;99590;;;;
2021/12/12 20:56:54;;;;;;;37.4;64.6;;;;;;;-2.9;79;99600;;;;
2021/12/12 21:06:56;;;;;;;37.4;64.6;;;;;;;-3.1;79;99600;;;;
2021/12/12 21:17:54;;;;;;;47;85.6;;;;;;;-3.3;79.1;99600;;;;
2021/12/12 21:28:54;;;;;;;47;85.6;;;;;;;-3.6;79.3;99580;;;;
2021/12/12 21:38:54;;;;;;;43.2;78.9;;;;;;;-3.6;79.9;99580;;;;
2021/12/12 21:48:54;;;;;;;43.2;78.9;;;;;;;-3.7;79.6;99610;;;;
2021/12/12 21:58:56;;;;;;;43.2;78.9;;;;;;;-3.8;79.7;99600;;;;
2021/12/12 22:09:54;;;;;;;38.1;62.1;;;;;;;-3.9;80.1;99590;;;;
2021/12/12 22:19:54;;;;;;;38.1;62.1;;;;;;;-4;79.8;99580;;;;
2021/12/12 22:29:56;;;;;;;38.1;62.1;;;;;;;-4.1;80;99570;;;;
2021/12/12 22:39:54;;;;;;;35.4;63.1;;;;;;;-4.2;80.2;99540;;;;
2021/12/12 22:49:57;;;;;;;35.4;63.1;;;;;;;-4.1;80.9;99530;;;;
2021/12/12 23:00:54;;;;;;;35.4;63.1;;;;;;;-4.1;80.5;99530;;;;
2021/12/12 23:10:55;;;;;;;37.8;61.9;;;;;;;-4.3;80.2;99540;;;;
2021/12/12 23:21:55;;;;;;;37.8;61.9;;;;;;;-4.4;79.9;99530;;;;
2021/12/12 23:31:55;;;;;;;37.8;61.9;;;;;;;-4.6;80.1;99520;;;;
2021/12/12 23:43:02;;;;;;;36.2;71.4;;;;;;;-4.7;80.1;99530;;;;
2021/12/12 23:52:55;;;;;;;36.2;71.4;;;;;;;-4.7;81.1;99520;;;;
